sensor_id;sensor_type;location;lat;lon;timestamp;P1;durP1;ratioP1;P2;durP2;ratioP2
74320;SDS011;62738;45.772;4.804;2023-06-04T00:01:26;6.75;;;3.35;;
74320;SDS011;62738;45.772;4.804;2023-06-04T00:03:56;5.43;;;3.15;;
74320;SDS011;62738;45.772;4.804;2023-06-04T00:06:22;5.65;;;3.13;;
74320;SDS011;62738;45.772;4.804;2023-06-04T00:08:49;8.02;;;3.70;;
74320;SDS011;62738;45.772;4.804;2023-06-04T00:11:16;6.18;;;3.30;;
74320;SDS011;62738;45.772;4.804;2023-06-04T00:13:43;6.63;;;4.20;;
74320;SDS011;62738;45.772;4.804;2023-06-04T00:16:09;8.85;;;6.18;;
74320;SDS011;62738;45.772;4.804;2023-06-04T00:18:36;7.45;;;4.40;;
74320;SDS011;62738;45.772;4.804;2023-06-04T00:21:03;4.45;;;3.30;;
74320;SDS011;62738;45.772;4.804;2023-06-04T00:23:30;7.13;;;3.60;;
74320;SDS011;62738;45.772;4.804;2023-06-04T00:25:56;5.20;;;3.20;;
74320;SDS011;62738;45.772;4.804;2023-06-04T00:28:23;6.72;;;5.47;;
74320;SDS011;62738;45.772;4.804;2023-06-04T00:30:49;8.88;;;5.97;;
74320;SDS011;62738;45.772;4.804;2023-06-04T00:33:16;9.10;;;3.80;;
74320;SDS011;62738;45.772;4.804;2023-06-04T00:35:43;5.88;;;3.10;;
74320;SDS011;62738;45.772;4.804;2023-06-04T00:38:10;5.43;;;3.17;;
74320;SDS011;62738;45.772;4.804;2023-06-04T00:40:37;8.57;;;3.13;;
74320;SDS011;62738;45.772;4.804;2023-06-04T00:43:03;4.80;;;3.47;;
74320;SDS011;62738;45.772;4.804;2023-06-04T00:45:30;5.40;;;3.50;;
74320;SDS011;62738;45.772;4.804;2023-06-04T00:47:57;8.13;;;3.80;;
74320;SDS011;62738;45.772;4.804;2023-06-04T00:50:24;5.22;;;3.88;;
74320;SDS011;62738;45.772;4.804;2023-06-04T00:52:51;5.80;;;4.10;;
74320;SDS011;62738;45.772;4.804;2023-06-04T00:55:18;8.93;;;4.80;;
74320;SDS011;62738;45.772;4.804;2023-06-04T00:57:44;7.55;;;4.43;;
74320;SDS011;62738;45.772;4.804;2023-06-04T01:00:11;5.90;;;4.10;;
74320;SDS011;62738;45.772;4.804;2023-06-04T01:02:39;9.05;;;4.20;;
74320;SDS011;62738;45.772;4.804;2023-06-04T01:05:18;11.80;;;4.63;;
74320;SDS011;62738;45.772;4.804;2023-06-04T01:07:57;5.50;;;3.83;;
74320;SDS011;62738;45.772;4.804;2023-06-04T01:10:24;6.13;;;3.80;;
74320;SDS011;62738;45.772;4.804;2023-06-04T01:12:50;6.90;;;4.00;;
74320;SDS011;62738;45.772;4.804;2023-06-04T01:15:17;5.47;;;3.88;;
74320;SDS011;62738;45.772;4.804;2023-06-04T01:17:44;8.00;;;4.20;;
74320;SDS011;62738;45.772;4.804;2023-06-04T01:23:14;8.30;;;4.00;;
74320;SDS011;62738;45.772;4.804;2023-06-04T01:25:50;6.60;;;4.50;;
74320;SDS011;62738;45.772;4.804;2023-06-04T01:28:18;5.32;;;3.92;;
74320;SDS011;62738;45.772;4.804;2023-06-04T01:30:47;7.00;;;4.65;;
74320;SDS011;62738;45.772;4.804;2023-06-04T01:33:15;8.10;;;4.68;;
74320;SDS011;62738;45.772;4.804;2023-06-04T01:35:43;6.93;;;4.72;;
74320;SDS011;62738;45.772;4.804;2023-06-04T01:38:10;7.35;;;5.15;;
74320;SDS011;62738;45.772;4.804;2023-06-04T01:40:37;7.97;;;5.63;;
74320;SDS011;62738;45.772;4.804;2023-06-04T01:43:03;7.82;;;5.10;;
74320;SDS011;62738;45.772;4.804;2023-06-04T01:45:30;7.57;;;5.35;;
74320;SDS011;62738;45.772;4.804;2023-06-04T01:47:57;7.32;;;5.43;;
74320;SDS011;62738;45.772;4.804;2023-06-04T01:50:23;8.38;;;5.70;;
74320;SDS011;62738;45.772;4.804;2023-06-04T01:52:50;9.25;;;6.05;;
74320;SDS011;62738;45.772;4.804;2023-06-04T01:55:17;7.82;;;5.85;;
74320;SDS011;62738;45.772;4.804;2023-06-04T01:57:45;8.00;;;6.03;;
74320;SDS011;62738;45.772;4.804;2023-06-04T02:00:13;9.40;;;5.55;;
74320;SDS011;62738;45.772;4.804;2023-06-04T02:02:41;7.97;;;6.32;;
74320;SDS011;62738;45.772;4.804;2023-06-04T02:05:10;7.35;;;5.47;;
74320;SDS011;62738;45.772;4.804;2023-06-04T02:07:37;7.85;;;5.78;;
74320;SDS011;62738;45.772;4.804;2023-06-04T02:10:08;9.82;;;6.90;;
74320;SDS011;62738;45.772;4.804;2023-06-04T02:12:37;7.97;;;5.63;;
74320;SDS011;62738;45.772;4.804;2023-06-04T02:15:04;8.20;;;5.43;;
74320;SDS011;62738;45.772;4.804;2023-06-04T02:17:32;8.65;;;5.35;;
74320;SDS011;62738;45.772;4.804;2023-06-04T02:19:58;9.32;;;5.68;;
74320;SDS011;62738;45.772;4.804;2023-06-04T02:22:25;9.35;;;5.50;;
74320;SDS011;62738;45.772;4.804;2023-06-04T02:24:52;9.82;;;6.75;;
74320;SDS011;62738;45.772;4.804;2023-06-04T02:27:19;9.25;;;6.30;;
74320;SDS011;62738;45.772;4.804;2023-06-04T02:29:46;7.72;;;4.82;;
74320;SDS011;62738;45.772;4.804;2023-06-04T02:32:13;9.88;;;4.90;;
74320;SDS011;62738;45.772;4.804;2023-06-04T02:34:40;8.60;;;4.68;;
74320;SDS011;62738;45.772;4.804;2023-06-04T02:37:06;9.35;;;5.47;;
74320;SDS011;62738;45.772;4.804;2023-06-04T02:39:33;8.50;;;5.05;;
74320;SDS011;62738;45.772;4.804;2023-06-04T02:42:00;7.68;;;6.18;;
74320;SDS011;62738;45.772;4.804;2023-06-04T02:44:27;9.63;;;7.00;;
74320;SDS011;62738;45.772;4.804;2023-06-04T02:46:55;13.70;;;11.52;;
74320;SDS011;62738;45.772;4.804;2023-06-04T02:49:23;9.23;;;5.85;;
74320;SDS011;62738;45.772;4.804;2023-06-04T02:51:50;9.68;;;6.45;;
74320;SDS011;62738;45.772;4.804;2023-06-04T02:54:17;11.25;;;6.70;;
74320;SDS011;62738;45.772;4.804;2023-06-04T02:56:43;7.57;;;5.72;;
74320;SDS011;62738;45.772;4.804;2023-06-04T02:59:10;9.27;;;6.22;;
74320;SDS011;62738;45.772;4.804;2023-06-04T03:01:39;12.20;;;8.00;;
74320;SDS011;62738;45.772;4.804;2023-06-04T03:04:07;14.48;;;10.10;;
74320;SDS011;62738;45.772;4.804;2023-06-04T03:06:36;12.45;;;8.45;;
74320;SDS011;62738;45.772;4.804;2023-06-04T03:09:06;9.30;;;6.47;;
74320;SDS011;62738;45.772;4.804;2023-06-04T03:11:33;10.70;;;6.00;;
74320;SDS011;62738;45.772;4.804;2023-06-04T03:14:00;9.38;;;6.68;;
74320;SDS011;62738;45.772;4.804;2023-06-04T03:16:26;9.60;;;7.32;;
74320;SDS011;62738;45.772;4.804;2023-06-04T03:18:54;11.38;;;8.65;;
74320;SDS011;62738;45.772;4.804;2023-06-04T03:21:20;11.90;;;9.95;;
74320;SDS011;62738;45.772;4.804;2023-06-04T03:23:47;22.35;;;16.02;;
74320;SDS011;62738;45.772;4.804;2023-06-04T03:26:14;20.40;;;17.15;;
74320;SDS011;62738;45.772;4.804;2023-06-04T03:28:41;21.88;;;15.77;;
74320;SDS011;62738;45.772;4.804;2023-06-04T03:31:07;14.30;;;10.82;;
74320;SDS011;62738;45.772;4.804;2023-06-04T03:33:34;15.15;;;11.32;;
74320;SDS011;62738;45.772;4.804;2023-06-04T03:36:01;13.02;;;8.50;;
74320;SDS011;62738;45.772;4.804;2023-06-04T03:38:28;13.80;;;10.80;;
74320;SDS011;62738;45.772;4.804;2023-06-04T03:40:55;15.27;;;10.55;;
74320;SDS011;62738;45.772;4.804;2023-06-04T03:43:22;13.45;;;9.10;;
74320;SDS011;62738;45.772;4.804;2023-06-04T03:45:49;11.30;;;7.60;;
74320;SDS011;62738;45.772;4.804;2023-06-04T03:48:16;10.57;;;6.95;;
74320;SDS011;62738;45.772;4.804;2023-06-04T03:50:42;10.43;;;6.95;;
74320;SDS011;62738;45.772;4.804;2023-06-04T03:53:12;9.23;;;6.22;;
74320;SDS011;62738;45.772;4.804;2023-06-04T03:55:39;7.95;;;6.63;;
74320;SDS011;62738;45.772;4.804;2023-06-04T03:58:05;10.68;;;6.20;;
74320;SDS011;62738;45.772;4.804;2023-06-04T04:00:35;9.88;;;5.97;;
74320;SDS011;62738;45.772;4.804;2023-06-04T04:03:02;9.27;;;6.28;;
74320;SDS011;62738;45.772;4.804;2023-06-04T04:05:29;10.65;;;6.28;;
74320;SDS011;62738;45.772;4.804;2023-06-04T04:07:57;8.07;;;5.40;;
74320;SDS011;62738;45.772;4.804;2023-06-04T04:10:24;8.77;;;6.50;;
74320;SDS011;62738;45.772;4.804;2023-06-04T04:12:50;8.57;;;5.63;;
74320;SDS011;62738;45.772;4.804;2023-06-04T04:15:20;8.02;;;6.05;;
74320;SDS011;62738;45.772;4.804;2023-06-04T04:17:46;9.30;;;6.07;;
74320;SDS011;62738;45.772;4.804;2023-06-04T04:20:13;9.48;;;6.65;;
74320;SDS011;62738;45.772;4.804;2023-06-04T04:22:40;7.78;;;6.43;;
74320;SDS011;62738;45.772;4.804;2023-06-04T04:25:08;9.60;;;6.55;;
74320;SDS011;62738;45.772;4.804;2023-06-04T04:27:35;8.95;;;6.47;;
74320;SDS011;62738;45.772;4.804;2023-06-04T04:30:05;8.52;;;5.60;;
74320;SDS011;62738;45.772;4.804;2023-06-04T04:32:33;9.95;;;6.32;;
74320;SDS011;62738;45.772;4.804;2023-06-04T04:34:59;11.60;;;7.18;;
74320;SDS011;62738;45.772;4.804;2023-06-04T04:37:26;11.68;;;6.93;;
74320;SDS011;62738;45.772;4.804;2023-06-04T04:39:53;9.23;;;6.60;;
74320;SDS011;62738;45.772;4.804;2023-06-04T04:42:20;8.23;;;6.50;;
74320;SDS011;62738;45.772;4.804;2023-06-04T04:44:47;9.63;;;6.43;;
74320;SDS011;62738;45.772;4.804;2023-06-04T04:47:15;9.07;;;6.00;;
74320;SDS011;62738;45.772;4.804;2023-06-04T04:49:42;8.27;;;5.57;;
74320;SDS011;62738;45.772;4.804;2023-06-04T04:52:09;10.18;;;5.63;;
74320;SDS011;62738;45.772;4.804;2023-06-04T04:54:36;8.30;;;6.28;;
74320;SDS011;62738;45.772;4.804;2023-06-04T04:57:02;9.15;;;6.47;;
74320;SDS011;62738;45.772;4.804;2023-06-04T04:59:39;7.57;;;6.43;;
74320;SDS011;62738;45.772;4.804;2023-06-04T05:02:06;7.30;;;5.63;;
74320;SDS011;62738;45.772;4.804;2023-06-04T05:04:32;8.80;;;5.72;;
74320;SDS011;62738;45.772;4.804;2023-06-04T05:06:59;7.57;;;6.15;;
74320;SDS011;62738;45.772;4.804;2023-06-04T05:09:26;9.55;;;5.95;;
74320;SDS011;62738;45.772;4.804;2023-06-04T05:11:52;7.88;;;6.03;;
74320;SDS011;62738;45.772;4.804;2023-06-04T05:14:19;10.20;;;6.28;;
74320;SDS011;62738;45.772;4.804;2023-06-04T05:16:46;8.98;;;5.38;;
74320;SDS011;62738;45.772;4.804;2023-06-04T05:19:18;8.57;;;6.20;;
74320;SDS011;62738;45.772;4.804;2023-06-04T05:21:44;8.05;;;5.45;;
74320;SDS011;62738;45.772;4.804;2023-06-04T05:24:11;10.43;;;7.03;;
74320;SDS011;62738;45.772;4.804;2023-06-04T05:26:38;11.95;;;6.22;;
74320;SDS011;62738;45.772;4.804;2023-06-04T05:29:06;8.73;;;6.00;;
74320;SDS011;62738;45.772;4.804;2023-06-04T05:31:33;9.38;;;5.65;;
74320;SDS011;62738;45.772;4.804;2023-06-04T05:34:01;6.53;;;5.13;;
74320;SDS011;62738;45.772;4.804;2023-06-04T05:36:29;8.05;;;5.65;;
74320;SDS011;62738;45.772;4.804;2023-06-04T05:38:56;7.80;;;5.82;;
74320;SDS011;62738;45.772;4.804;2023-06-04T05:41:26;10.95;;;6.20;;
74320;SDS011;62738;45.772;4.804;2023-06-04T05:43:54;9.80;;;5.95;;
74320;SDS011;62738;45.772;4.804;2023-06-04T05:46:21;7.93;;;5.68;;
74320;SDS011;62738;45.772;4.804;2023-06-04T05:48:48;8.23;;;6.50;;
74320;SDS011;62738;45.772;4.804;2023-06-04T05:51:15;8.85;;;6.18;;
74320;SDS011;62738;45.772;4.804;2023-06-04T05:53:42;6.50;;;5.35;;
74320;SDS011;62738;45.772;4.804;2023-06-04T05:56:08;8.15;;;5.80;;
74320;SDS011;62738;45.772;4.804;2023-06-04T05:58:35;11.65;;;6.65;;
74320;SDS011;62738;45.772;4.804;2023-06-04T06:01:02;10.43;;;6.47;;
74320;SDS011;62738;45.772;4.804;2023-06-04T06:03:29;8.30;;;6.38;;
74320;SDS011;62738;45.772;4.804;2023-06-04T06:05:56;8.68;;;5.72;;
74320;SDS011;62738;45.772;4.804;2023-06-04T06:08:26;9.63;;;6.28;;
74320;SDS011;62738;45.772;4.804;2023-06-04T06:10:53;9.13;;;6.45;;
74320;SDS011;62738;45.772;4.804;2023-06-04T06:13:20;7.88;;;6.00;;
74320;SDS011;62738;45.772;4.804;2023-06-04T06:15:46;8.68;;;5.88;;
74320;SDS011;62738;45.772;4.804;2023-06-04T06:18:16;6.63;;;5.10;;
74320;SDS011;62738;45.772;4.804;2023-06-04T06:20:43;9.95;;;5.70;;
74320;SDS011;62738;45.772;4.804;2023-06-04T06:23:10;7.70;;;5.10;;
74320;SDS011;62738;45.772;4.804;2023-06-04T06:25:37;10.57;;;5.82;;
74320;SDS011;62738;45.772;4.804;2023-06-04T06:28:06;10.27;;;6.93;;
74320;SDS011;62738;45.772;4.804;2023-06-04T06:30:33;10.18;;;6.82;;
74320;SDS011;62738;45.772;4.804;2023-06-04T06:33:01;12.57;;;6.97;;
74320;SDS011;62738;45.772;4.804;2023-06-04T06:35:27;8.80;;;5.90;;
74320;SDS011;62738;45.772;4.804;2023-06-04T06:37:54;7.80;;;5.30;;
74320;SDS011;62738;45.772;4.804;2023-06-04T06:40:21;7.28;;;5.10;;
74320;SDS011;62738;45.772;4.804;2023-06-04T06:42:50;6.80;;;5.03;;
74320;SDS011;62738;45.772;4.804;2023-06-04T06:45:17;11.88;;;5.60;;
74320;SDS011;62738;45.772;4.804;2023-06-04T06:47:45;8.93;;;5.00;;
74320;SDS011;62738;45.772;4.804;2023-06-04T06:50:11;8.23;;;5.57;;
74320;SDS011;62738;45.772;4.804;2023-06-04T06:52:38;9.68;;;4.88;;
74320;SDS011;62738;45.772;4.804;2023-06-04T06:55:05;10.98;;;5.38;;
74320;SDS011;62738;45.772;4.804;2023-06-04T06:57:32;8.15;;;5.75;;
74320;SDS011;62738;45.772;4.804;2023-06-04T06:59:59;8.07;;;6.03;;
74320;SDS011;62738;45.772;4.804;2023-06-04T07:02:27;9.20;;;5.53;;
74320;SDS011;62738;45.772;4.804;2023-06-04T07:04:55;12.95;;;5.78;;
74320;SDS011;62738;45.772;4.804;2023-06-04T07:07:22;9.38;;;5.65;;
74320;SDS011;62738;45.772;4.804;2023-06-04T07:09:48;8.48;;;5.60;;
74320;SDS011;62738;45.772;4.804;2023-06-04T07:12:16;8.15;;;5.18;;
74320;SDS011;62738;45.772;4.804;2023-06-04T07:14:43;10.63;;;5.85;;
74320;SDS011;62738;45.772;4.804;2023-06-04T07:17:09;10.57;;;5.03;;
74320;SDS011;62738;45.772;4.804;2023-06-04T07:19:36;9.98;;;5.00;;
74320;SDS011;62738;45.772;4.804;2023-06-04T07:22:03;5.22;;;4.35;;
74320;SDS011;62738;45.772;4.804;2023-06-04T07:24:30;6.50;;;4.97;;
74320;SDS011;62738;45.772;4.804;2023-06-04T07:26:57;7.25;;;4.82;;
74320;SDS011;62738;45.772;4.804;2023-06-04T07:29:23;6.53;;;5.03;;
74320;SDS011;62738;45.772;4.804;2023-06-04T07:31:50;8.63;;;5.07;;
74320;SDS011;62738;45.772;4.804;2023-06-04T07:34:17;9.93;;;5.00;;
74320;SDS011;62738;45.772;4.804;2023-06-04T07:36:44;9.30;;;5.15;;
74320;SDS011;62738;45.772;4.804;2023-06-04T07:39:10;10.52;;;5.10;;
74320;SDS011;62738;45.772;4.804;2023-06-04T07:41:37;6.63;;;5.05;;
74320;SDS011;62738;45.772;4.804;2023-06-04T07:44:04;9.50;;;5.28;;
74320;SDS011;62738;45.772;4.804;2023-06-04T07:46:30;8.45;;;5.50;;
74320;SDS011;62738;45.772;4.804;2023-06-04T07:48:57;7.93;;;5.38;;
74320;SDS011;62738;45.772;4.804;2023-06-04T07:51:24;9.20;;;5.25;;
74320;SDS011;62738;45.772;4.804;2023-06-04T07:53:51;10.30;;;5.40;;
74320;SDS011;62738;45.772;4.804;2023-06-04T07:56:18;10.07;;;4.97;;
74320;SDS011;62738;45.772;4.804;2023-06-04T07:58:45;10.48;;;5.70;;
74320;SDS011;62738;45.772;4.804;2023-06-04T08:01:13;9.55;;;5.72;;
74320;SDS011;62738;45.772;4.804;2023-06-04T08:03:39;7.78;;;5.00;;
74320;SDS011;62738;45.772;4.804;2023-06-04T08:06:08;8.32;;;5.65;;
74320;SDS011;62738;45.772;4.804;2023-06-04T08:08:36;6.50;;;5.70;;
74320;SDS011;62738;45.772;4.804;2023-06-04T08:11:02;8.90;;;5.47;;
74320;SDS011;62738;45.772;4.804;2023-06-04T08:13:29;11.15;;;5.65;;
74320;SDS011;62738;45.772;4.804;2023-06-04T08:15:56;9.27;;;5.25;;
74320;SDS011;62738;45.772;4.804;2023-06-04T08:18:23;8.27;;;5.10;;
74320;SDS011;62738;45.772;4.804;2023-06-04T08:20:49;9.23;;;5.15;;
74320;SDS011;62738;45.772;4.804;2023-06-04T08:23:17;9.63;;;5.40;;
74320;SDS011;62738;45.772;4.804;2023-06-04T08:25:43;7.00;;;4.95;;
74320;SDS011;62738;45.772;4.804;2023-06-04T08:28:10;6.60;;;4.75;;
74320;SDS011;62738;45.772;4.804;2023-06-04T08:30:39;6.18;;;4.43;;
74320;SDS011;62738;45.772;4.804;2023-06-04T08:33:06;7.90;;;4.18;;
74320;SDS011;62738;45.772;4.804;2023-06-04T08:35:35;7.30;;;4.32;;
74320;SDS011;62738;45.772;4.804;2023-06-04T08:38:02;5.95;;;4.47;;
74320;SDS011;62738;45.772;4.804;2023-06-04T08:40:28;7.57;;;4.63;;
74320;SDS011;62738;45.772;4.804;2023-06-04T08:42:55;7.13;;;4.47;;
74320;SDS011;62738;45.772;4.804;2023-06-04T08:45:24;8.43;;;4.22;;
74320;SDS011;62738;45.772;4.804;2023-06-04T08:47:52;6.78;;;4.75;;
74320;SDS011;62738;45.772;4.804;2023-06-04T08:50:21;11.95;;;4.90;;
74320;SDS011;62738;45.772;4.804;2023-06-04T08:52:51;6.30;;;4.50;;
74320;SDS011;62738;45.772;4.804;2023-06-04T08:55:21;6.55;;;4.43;;
74320;SDS011;62738;45.772;4.804;2023-06-04T08:57:51;7.78;;;4.30;;
74320;SDS011;62738;45.772;4.804;2023-06-04T09:00:18;6.00;;;4.40;;
74320;SDS011;62738;45.772;4.804;2023-06-04T09:02:46;6.25;;;4.20;;
74320;SDS011;62738;45.772;4.804;2023-06-04T09:05:21;6.97;;;4.43;;
74320;SDS011;62738;45.772;4.804;2023-06-04T09:07:51;5.47;;;4.70;;
74320;SDS011;62738;45.772;4.804;2023-06-04T09:12:48;5.80;;;4.00;;
74320;SDS011;62738;45.772;4.804;2023-06-04T09:15:16;5.78;;;3.60;;
74320;SDS011;62738;45.772;4.804;2023-06-04T09:17:43;6.85;;;3.30;;
74320;SDS011;62738;45.772;4.804;2023-06-04T09:20:22;4.53;;;3.40;;
74320;SDS011;62738;45.772;4.804;2023-06-04T09:22:49;7.43;;;4.43;;
74320;SDS011;62738;45.772;4.804;2023-06-04T09:25:34;7.47;;;4.20;;
74320;SDS011;62738;45.772;4.804;2023-06-04T09:28:08;5.32;;;3.90;;
74320;SDS011;62738;45.772;4.804;2023-06-04T09:30:35;6.60;;;3.97;;
74320;SDS011;62738;45.772;4.804;2023-06-04T09:33:08;7.80;;;3.88;;
74320;SDS011;62738;45.772;4.804;2023-06-04T09:35:36;5.13;;;3.63;;
74320;SDS011;62738;45.772;4.804;2023-06-04T09:38:04;7.15;;;4.15;;
74320;SDS011;62738;45.772;4.804;2023-06-04T09:40:37;8.00;;;4.93;;
74320;SDS011;62738;45.772;4.804;2023-06-04T09:43:04;7.82;;;4.10;;
74320;SDS011;62738;45.772;4.804;2023-06-04T09:45:32;5.13;;;3.42;;
74320;SDS011;62738;45.772;4.804;2023-06-04T09:48:01;5.78;;;3.33;;
74320;SDS011;62738;45.772;4.804;2023-06-04T09:50:32;5.03;;;3.50;;
74320;SDS011;62738;45.772;4.804;2023-06-04T09:53:00;4.63;;;3.25;;
74320;SDS011;62738;45.772;4.804;2023-06-04T09:55:28;3.97;;;3.03;;
74320;SDS011;62738;45.772;4.804;2023-06-04T09:57:55;3.90;;;2.78;;
74320;SDS011;62738;45.772;4.804;2023-06-04T10:00:24;4.97;;;3.13;;
74320;SDS011;62738;45.772;4.804;2023-06-04T10:02:59;4.75;;;3.33;;
74320;SDS011;62738;45.772;4.804;2023-06-04T10:05:30;4.90;;;3.20;;
74320;SDS011;62738;45.772;4.804;2023-06-04T10:07:58;3.97;;;3.00;;
74320;SDS011;62738;45.772;4.804;2023-06-04T10:10:31;4.22;;;2.95;;
74320;SDS011;62738;45.772;4.804;2023-06-04T10:13:02;4.18;;;3.13;;
74320;SDS011;62738;45.772;4.804;2023-06-04T10:15:33;4.85;;;2.80;;
74320;SDS011;62738;45.772;4.804;2023-06-04T10:18:02;6.88;;;3.40;;
74320;SDS011;62738;45.772;4.804;2023-06-04T10:20:30;8.63;;;3.40;;
74320;SDS011;62738;45.772;4.804;2023-06-04T10:22:58;4.15;;;3.33;;
74320;SDS011;62738;45.772;4.804;2023-06-04T10:25:25;4.07;;;2.90;;
74320;SDS011;62738;45.772;4.804;2023-06-04T10:27:52;7.00;;;3.47;;
74320;SDS011;62738;45.772;4.804;2023-06-04T10:30:19;6.30;;;3.67;;
74320;SDS011;62738;45.772;4.804;2023-06-04T10:32:46;7.20;;;3.78;;
74320;SDS011;62738;45.772;4.804;2023-06-04T10:35:13;4.63;;;3.45;;
74320;SDS011;62738;45.772;4.804;2023-06-04T10:37:41;5.40;;;3.45;;
74320;SDS011;62738;45.772;4.804;2023-06-04T10:40:07;5.65;;;3.55;;
74320;SDS011;62738;45.772;4.804;2023-06-04T10:42:38;5.05;;;3.78;;
74320;SDS011;62738;45.772;4.804;2023-06-04T10:45:07;4.88;;;3.13;;
74320;SDS011;62738;45.772;4.804;2023-06-04T10:47:36;4.30;;;2.65;;
74320;SDS011;62738;45.772;4.804;2023-06-04T10:50:08;3.17;;;2.20;;
74320;SDS011;62738;45.772;4.804;2023-06-04T10:52:37;3.00;;;2.58;;
74320;SDS011;62738;45.772;4.804;2023-06-04T10:55:06;5.18;;;2.53;;
74320;SDS011;62738;45.772;4.804;2023-06-04T10:57:34;2.70;;;2.20;;
74320;SDS011;62738;45.772;4.804;2023-06-04T11:00:02;4.10;;;2.60;;
74320;SDS011;62738;45.772;4.804;2023-06-04T11:02:32;3.03;;;2.20;;
74320;SDS011;62738;45.772;4.804;2023-06-04T11:04:59;4.40;;;2.63;;
74320;SDS011;62738;45.772;4.804;2023-06-04T11:07:42;3.53;;;2.63;;
74320;SDS011;62738;45.772;4.804;2023-06-04T11:10:12;3.53;;;2.40;;
74320;SDS011;62738;45.772;4.804;2023-06-04T11:12:45;4.35;;;2.80;;
74320;SDS011;62738;45.772;4.804;2023-06-04T11:15:13;3.63;;;2.55;;
74320;SDS011;62738;45.772;4.804;2023-06-04T11:17:55;4.43;;;2.50;;
74320;SDS011;62738;45.772;4.804;2023-06-04T11:20:24;3.22;;;2.53;;
74320;SDS011;62738;45.772;4.804;2023-06-04T11:22:54;3.83;;;3.05;;
74320;SDS011;62738;45.772;4.804;2023-06-04T11:25:25;5.13;;;2.90;;
74320;SDS011;62738;45.772;4.804;2023-06-04T11:27:53;3.95;;;2.90;;
74320;SDS011;62738;45.772;4.804;2023-06-04T11:30:20;3.88;;;2.78;;
74320;SDS011;62738;45.772;4.804;2023-06-04T11:32:47;3.72;;;2.83;;
74320;SDS011;62738;45.772;4.804;2023-06-04T11:35:14;5.32;;;2.92;;
74320;SDS011;62738;45.772;4.804;2023-06-04T11:37:41;4.40;;;2.83;;
74320;SDS011;62738;45.772;4.804;2023-06-04T11:40:17;5.10;;;2.80;;
74320;SDS011;62738;45.772;4.804;2023-06-04T11:42:46;4.55;;;2.97;;
74320;SDS011;62738;45.772;4.804;2023-06-04T11:45:13;4.70;;;2.85;;
74320;SDS011;62738;45.772;4.804;2023-06-04T11:47:45;5.47;;;2.90;;
74320;SDS011;62738;45.772;4.804;2023-06-04T11:50:13;5.70;;;2.80;;
74320;SDS011;62738;45.772;4.804;2023-06-04T11:52:41;3.83;;;2.72;;
74320;SDS011;62738;45.772;4.804;2023-06-04T11:55:11;4.63;;;2.80;;
74320;SDS011;62738;45.772;4.804;2023-06-04T11:57:39;4.65;;;2.60;;
74320;SDS011;62738;45.772;4.804;2023-06-04T12:00:08;3.45;;;2.70;;
74320;SDS011;62738;45.772;4.804;2023-06-04T12:02:48;4.47;;;2.70;;
74320;SDS011;62738;45.772;4.804;2023-06-04T12:05:21;4.13;;;2.53;;
74320;SDS011;62738;45.772;4.804;2023-06-04T12:08:05;3.55;;;2.60;;
74320;SDS011;62738;45.772;4.804;2023-06-04T12:10:36;3.40;;;2.72;;
74320;SDS011;62738;45.772;4.804;2023-06-04T12:13:07;4.22;;;2.78;;
74320;SDS011;62738;45.772;4.804;2023-06-04T12:15:34;2.95;;;2.30;;
74320;SDS011;62738;45.772;4.804;2023-06-04T12:18:01;4.13;;;2.50;;
74320;SDS011;62738;45.772;4.804;2023-06-04T12:20:37;3.67;;;2.63;;
74320;SDS011;62738;45.772;4.804;2023-06-04T12:23:05;3.95;;;2.33;;
74320;SDS011;62738;45.772;4.804;2023-06-04T12:25:33;3.85;;;2.50;;
74320;SDS011;62738;45.772;4.804;2023-06-04T12:28:00;3.88;;;2.55;;
74320;SDS011;62738;45.772;4.804;2023-06-04T12:30:39;3.38;;;2.45;;
74320;SDS011;62738;45.772;4.804;2023-06-04T12:33:07;4.35;;;2.85;;
74320;SDS011;62738;45.772;4.804;2023-06-04T12:35:34;4.40;;;2.50;;
74320;SDS011;62738;45.772;4.804;2023-06-04T12:38:04;2.95;;;2.50;;
74320;SDS011;62738;45.772;4.804;2023-06-04T12:40:31;3.45;;;2.22;;
74320;SDS011;62738;45.772;4.804;2023-06-04T12:42:58;2.40;;;2.20;;
74320;SDS011;62738;45.772;4.804;2023-06-04T12:45:25;5.28;;;2.55;;
74320;SDS011;62738;45.772;4.804;2023-06-04T12:47:52;4.13;;;2.30;;
74320;SDS011;62738;45.772;4.804;2023-06-04T12:50:18;4.80;;;2.28;;
74320;SDS011;62738;45.772;4.804;2023-06-04T12:52:48;2.88;;;2.33;;
74320;SDS011;62738;45.772;4.804;2023-06-04T12:55:14;4.05;;;2.33;;
74320;SDS011;62738;45.772;4.804;2023-06-04T12:57:41;4.07;;;2.50;;
74320;SDS011;62738;45.772;4.804;2023-06-04T13:00:10;4.63;;;2.35;;
